createdAt,value
2023-03-29T00:01:36.087Z,1.80
2023-03-29T00:04:05.223Z,2.30
2023-03-29T00:06:33.428Z,1.63
2023-03-29T00:09:02.013Z,1.85
2023-03-29T00:11:29.405Z,1.60
2023-03-29T00:13:57.023Z,2.00
2023-03-29T00:16:24.579Z,1.90
2023-03-29T00:18:52.114Z,1.67
2023-03-29T00:21:19.555Z,2.28
2023-03-29T00:23:47.009Z,1.52
2023-03-29T00:26:14.552Z,1.58
2023-03-29T00:28:42.133Z,1.55
2023-03-29T00:31:15.680Z,1.40
2023-03-29T00:36:12.635Z,1.30
2023-03-29T00:38:40.655Z,2.00
2023-03-29T00:41:09.517Z,1.75
2023-03-29T00:43:56.667Z,1.70
2023-03-29T00:46:26.206Z,1.95
2023-03-29T00:48:58.110Z,1.70
2023-03-29T00:51:30.760Z,1.88
2023-03-29T00:54:01.826Z,1.40
2023-03-29T00:56:40.034Z,1.33
2023-03-29T00:59:32.986Z,1.83
2023-03-29T01:02:05.513Z,1.33
2023-03-29T01:04:36.556Z,1.50
2023-03-29T01:07:13.653Z,1.40
2023-03-29T01:09:48.060Z,1.95
2023-03-29T01:12:20.039Z,1.70
2023-03-29T01:14:52.462Z,1.60
2023-03-29T01:17:25.586Z,1.30
2023-03-29T01:19:59.856Z,2.10
2023-03-29T01:23:05.836Z,1.30
2023-03-29T01:25:57.906Z,1.30
2023-03-29T01:28:40.405Z,1.40
2023-03-29T01:31:17.362Z,1.73
2023-03-29T01:33:52.202Z,1.33
2023-03-29T01:36:45.882Z,1.50
2023-03-29T01:39:13.496Z,1.77
2023-03-29T01:41:49.630Z,1.80
2023-03-29T01:44:30.303Z,1.92
2023-03-29T01:47:27.777Z,1.75
2023-03-29T01:50:17.862Z,1.40
2023-03-29T01:52:56.899Z,1.38
2023-03-29T01:55:31.712Z,1.30
2023-03-29T01:58:02.056Z,1.40
2023-03-29T02:00:30.444Z,1.85
2023-03-29T02:03:04.637Z,1.40
2023-03-29T02:05:33.671Z,1.50
2023-03-29T02:08:02.769Z,1.60
2023-03-29T02:10:34.280Z,1.40
2023-03-29T02:13:02.042Z,1.40
2023-03-29T02:15:29.624Z,1.40
2023-03-29T02:17:57.196Z,1.70
2023-03-29T02:20:30.431Z,1.27
2023-03-29T02:23:09.871Z,1.60
2023-03-29T02:25:38.090Z,1.30
2023-03-29T02:28:07.026Z,1.40
2023-03-29T02:30:50.354Z,1.40
2023-03-29T02:33:22.298Z,2.13
2023-03-29T02:35:59.238Z,1.10
2023-03-29T02:38:27.966Z,1.58
2023-03-29T02:40:57.992Z,1.65
2023-03-29T02:43:28.349Z,1.20
2023-03-29T02:45:56.641Z,1.38
2023-03-29T02:48:27.219Z,1.40
2023-03-29T02:50:58.184Z,1.80
2023-03-29T02:53:50.076Z,1.67
2023-03-29T02:56:20.270Z,1.63
2023-03-29T02:58:49.105Z,1.98
2023-03-29T03:01:18.186Z,2.00
2023-03-29T03:03:45.976Z,1.77
2023-03-29T03:06:14.177Z,2.25
2023-03-29T03:08:42.221Z,1.92
2023-03-29T03:11:10.486Z,1.98
2023-03-29T03:13:38.038Z,2.30
2023-03-29T03:16:06.007Z,1.58
2023-03-29T03:18:34.071Z,2.47
2023-03-29T03:21:02.452Z,1.70
2023-03-29T03:23:30.530Z,2.22
2023-03-29T03:25:59.239Z,1.83
2023-03-29T03:28:27.509Z,1.70
2023-03-29T03:30:56.037Z,2.00
2023-03-29T03:33:24.262Z,1.80
2023-03-29T03:36:11.387Z,1.75
2023-03-29T03:38:39.239Z,1.60
2023-03-29T03:41:07.503Z,2.15
2023-03-29T03:43:38.289Z,1.95
2023-03-29T03:46:08.713Z,2.10
2023-03-29T03:48:37.462Z,1.90
2023-03-29T03:51:18.550Z,2.30
2023-03-29T03:53:46.810Z,2.13
2023-03-29T03:56:14.368Z,2.00
2023-03-29T03:59:09.490Z,1.80
2023-03-29T04:01:46.444Z,1.63
2023-03-29T04:04:20.179Z,2.20
2023-03-29T04:07:02.858Z,1.88
2023-03-29T04:09:36.457Z,2.45
2023-03-29T04:12:27.195Z,2.20
2023-03-29T04:14:56.143Z,1.95
2023-03-29T04:17:26.366Z,1.80
2023-03-29T04:20:20.118Z,1.92
2023-03-29T04:22:51.290Z,1.92
2023-03-29T04:25:22.501Z,1.85
2023-03-29T04:27:51.022Z,2.30
2023-03-29T04:30:30.891Z,2.00
2023-03-29T04:33:11.759Z,2.40
2023-03-29T04:35:42.721Z,2.35
2023-03-29T04:38:14.522Z,2.33
2023-03-29T04:40:44.388Z,2.15
2023-03-29T04:43:19.343Z,3.10
2023-03-29T04:45:56.784Z,2.58
2023-03-29T04:48:56.164Z,2.50
2023-03-29T04:51:33.455Z,3.10
2023-03-29T04:54:01.306Z,2.97
2023-03-29T04:56:29.102Z,2.63
2023-03-29T04:59:23.172Z,2.65
2023-03-29T05:01:51.842Z,2.65
2023-03-29T05:04:19.329Z,3.35
2023-03-29T05:07:02.348Z,2.65
2023-03-29T05:09:32.503Z,3.47
2023-03-29T05:12:02.408Z,2.95
2023-03-29T05:14:37.226Z,2.78
2023-03-29T05:17:05.315Z,2.95
2023-03-29T05:19:34.096Z,3.40
2023-03-29T05:22:01.823Z,2.90
2023-03-29T05:24:29.502Z,2.83
2023-03-29T05:26:59.734Z,2.67
2023-03-29T05:29:32.855Z,3.17
2023-03-29T05:32:38.598Z,3.20
2023-03-29T05:35:09.489Z,2.97
2023-03-29T05:37:37.808Z,2.83
2023-03-29T05:40:10.324Z,2.85
2023-03-29T05:43:07.077Z,2.88
2023-03-29T05:45:34.686Z,3.15
2023-03-29T05:48:03.965Z,2.47
2023-03-29T05:50:32.191Z,3.00
2023-03-29T05:53:00.619Z,2.15
2023-03-29T05:55:28.512Z,2.70
2023-03-29T05:57:56.718Z,3.00
2023-03-29T06:00:31.961Z,3.13
2023-03-29T06:03:21.439Z,3.30
2023-03-29T06:05:58.092Z,3.35
2023-03-29T06:08:27.769Z,3.10
2023-03-29T06:11:10.956Z,3.60
2023-03-29T06:14:02.568Z,3.22
2023-03-29T06:16:30.953Z,3.13
2023-03-29T06:18:58.531Z,3.50
2023-03-29T06:21:28.660Z,3.00
2023-03-29T06:23:56.703Z,2.85
2023-03-29T06:26:27.902Z,3.10
2023-03-29T06:28:56.458Z,2.80
2023-03-29T06:31:24.510Z,1.90
2023-03-29T06:33:53.330Z,2.28
2023-03-29T06:36:53.134Z,2.38
2023-03-29T06:39:22.154Z,2.30
2023-03-29T06:42:20.076Z,2.65
2023-03-29T06:45:17.920Z,2.65
2023-03-29T06:47:49.078Z,3.10
2023-03-29T06:50:17.596Z,2.50
2023-03-29T06:52:52.825Z,2.92
2023-03-29T06:55:21.887Z,2.65
2023-03-29T06:57:50.848Z,2.40
2023-03-29T07:00:28.326Z,2.60
2023-03-29T07:03:13.376Z,2.70
2023-03-29T07:05:42.355Z,2.63
2023-03-29T07:08:16.617Z,2.70
2023-03-29T07:10:53.458Z,2.45
2023-03-29T07:13:49.150Z,2.72
2023-03-29T07:16:20.107Z,2.40
2023-03-29T07:18:51.374Z,2.95
2023-03-29T07:21:41.717Z,3.30
2023-03-29T07:24:10.350Z,2.72
2023-03-29T07:26:40.482Z,3.10
2023-03-29T07:29:11.955Z,2.88
2023-03-29T07:31:41.989Z,3.08
2023-03-29T07:34:30.233Z,2.80
2023-03-29T07:36:59.382Z,2.70
2023-03-29T07:39:27.983Z,3.10
2023-03-29T07:42:24.210Z,3.03
2023-03-29T07:44:52.152Z,3.00
2023-03-29T07:47:19.744Z,3.38
2023-03-29T07:49:47.217Z,2.78
2023-03-29T07:52:14.769Z,3.15
2023-03-29T07:54:42.520Z,4.82
2023-03-29T07:57:33.301Z,3.47
2023-03-29T08:00:01.442Z,4.13
2023-03-29T08:02:45.050Z,3.75
2023-03-29T08:05:16.273Z,3.53
2023-03-29T08:07:52.404Z,3.22
2023-03-29T08:10:39.671Z,3.00
2023-03-29T08:13:20.526Z,3.53
2023-03-29T08:16:08.938Z,3.83
2023-03-29T08:18:42.609Z,3.50
2023-03-29T08:21:10.255Z,3.63
2023-03-29T08:23:38.102Z,4.15
2023-03-29T08:26:26.004Z,3.80
2023-03-29T08:28:54.804Z,4.00
2023-03-29T08:31:24.360Z,3.42
2023-03-29T08:33:53.346Z,3.65
2023-03-29T08:36:40.479Z,3.53
2023-03-29T08:39:30.566Z,3.70
2023-03-29T08:42:39.068Z,3.70
2023-03-29T08:45:16.616Z,3.70
2023-03-29T08:47:58.917Z,3.50
2023-03-29T08:50:40.620Z,3.47
2023-03-29T08:53:38.767Z,3.17
2023-03-29T08:56:23.218Z,3.50
2023-03-29T08:59:35.315Z,3.10
2023-03-29T09:02:17.983Z,3.40
2023-03-29T09:04:52.693Z,3.05
2023-03-29T09:10:01.892Z,3.28
2023-03-29T09:13:22.453Z,3.10
2023-03-29T09:16:07.547Z,3.00
2023-03-29T09:19:06.586Z,3.00
2023-03-29T09:21:43.419Z,2.75
2023-03-29T09:24:15.763Z,2.95
2023-03-29T09:26:54.830Z,3.17
2023-03-29T09:29:41.237Z,3.20
2023-03-29T09:32:33.206Z,2.95
2023-03-29T09:35:23.370Z,3.30
2023-03-29T09:37:54.277Z,3.40
2023-03-29T09:40:28.049Z,3.50
2023-03-29T09:43:04.755Z,3.60
2023-03-29T09:45:33.544Z,4.03
2023-03-29T09:48:21.730Z,3.80
2023-03-29T09:50:54.871Z,4.22
2023-03-29T09:53:22.704Z,4.60
2023-03-29T09:56:02.792Z,4.75
2023-03-29T09:58:38.955Z,4.40
2023-03-29T10:01:10.564Z,5.00
2023-03-29T10:03:40.061Z,5.40
2023-03-29T10:06:12.641Z,5.85
2023-03-29T10:08:50.157Z,5.75
2023-03-29T10:11:28.966Z,5.70
2023-03-29T10:14:02.220Z,6.07
2023-03-29T10:16:36.344Z,6.35
2023-03-29T10:19:42.620Z,5.75
2023-03-29T10:22:24.501Z,5.57
2023-03-29T10:24:54.134Z,6.15
2023-03-29T10:27:28.061Z,6.28
2023-03-29T10:29:58.656Z,6.15
2023-03-29T10:32:34.862Z,6.43
2023-03-29T10:35:22.705Z,6.68
2023-03-29T10:37:53.194Z,5.90
2023-03-29T10:40:26.737Z,6.80
2023-03-29T10:42:59.036Z,6.25
2023-03-29T10:45:34.127Z,6.60
2023-03-29T10:48:06.999Z,6.78
2023-03-29T10:50:38.416Z,7.40
2023-03-29T10:53:17.738Z,7.38
2023-03-29T10:56:07.745Z,7.20
2023-03-29T10:58:59.026Z,7.15
2023-03-29T11:01:36.323Z,6.93
2023-03-29T11:04:25.472Z,6.97
2023-03-29T11:07:24.973Z,7.60
2023-03-29T11:10:16.862Z,8.15
2023-03-29T11:12:57.055Z,7.63
2023-03-29T11:16:03.025Z,9.00
2023-03-29T11:18:58.299Z,8.63
2023-03-29T11:21:59.312Z,8.90
2023-03-29T11:24:58.171Z,9.07
2023-03-29T11:28:14.040Z,8.20
2023-03-29T11:31:07.034Z,7.80
2023-03-29T11:33:50.150Z,7.78
2023-03-29T11:36:30.616Z,8.35
2023-03-29T11:39:05.442Z,8.13
2023-03-29T11:41:38.711Z,8.65
2023-03-29T11:44:15.033Z,8.95
2023-03-29T11:46:49.588Z,8.80
2023-03-29T11:49:35.333Z,7.38
2023-03-29T11:52:24.527Z,9.13
2023-03-29T11:55:12.185Z,8.95
2023-03-29T11:57:51.500Z,8.52
2023-03-29T12:00:19.791Z,9.07
2023-03-29T12:03:06.957Z,8.48
2023-03-29T12:05:45.765Z,9.27
2023-03-29T12:08:22.462Z,8.77
2023-03-29T12:11:18.769Z,9.05
2023-03-29T12:13:52.747Z,9.18
2023-03-29T12:16:32.498Z,8.63
2023-03-29T12:19:07.175Z,9.10
2023-03-29T12:21:36.502Z,9.32
2023-03-29T12:24:05.109Z,9.27
2023-03-29T12:26:35.476Z,10.50
2023-03-29T12:29:05.660Z,10.85
2023-03-29T12:31:57.567Z,11.90
2023-03-29T12:34:56.257Z,11.32
2023-03-29T12:38:30.532Z,11.30
2023-03-29T12:41:25.025Z,10.63
2023-03-29T12:44:15.304Z,12.00
2023-03-29T12:46:55.212Z,11.48
2023-03-29T12:49:33.051Z,11.40
2023-03-29T12:52:03.850Z,12.38
2023-03-29T12:54:32.929Z,12.10
2023-03-29T12:57:02.872Z,12.23
2023-03-29T12:59:48.704Z,12.23
2023-03-29T13:02:17.181Z,12.32
2023-03-29T13:04:52.495Z,12.52
2023-03-29T13:07:22.858Z,12.25
2023-03-29T13:09:59.515Z,13.30
2023-03-29T13:12:40.543Z,13.15
2023-03-29T13:15:32.604Z,12.93
2023-03-29T13:18:18.492Z,12.82
2023-03-29T13:20:51.471Z,13.02
2023-03-29T13:23:40.090Z,12.75
2023-03-29T13:26:23.446Z,13.30
2023-03-29T13:29:09.704Z,13.67
2023-03-29T13:31:44.464Z,13.63
2023-03-29T13:34:30.447Z,13.38
2023-03-29T13:37:59.617Z,13.27
2023-03-29T13:40:29.638Z,13.50
2023-03-29T13:43:08.485Z,12.30
2023-03-29T13:45:36.759Z,12.68
2023-03-29T13:48:30.463Z,12.80
2023-03-29T13:51:19.535Z,13.00
2023-03-29T13:53:53.313Z,12.07
2023-03-29T13:56:28.419Z,12.63
2023-03-29T13:59:15.757Z,11.90
2023-03-29T14:01:57.475Z,13.02
2023-03-29T14:04:28.322Z,11.90
2023-03-29T14:06:57.785Z,11.75
2023-03-29T14:09:31.841Z,11.95
2023-03-29T14:12:00.872Z,10.20
2023-03-29T14:14:32.286Z,10.82
2023-03-29T14:17:01.344Z,10.90
2023-03-29T14:19:35.533Z,10.65
2023-03-29T14:22:08.582Z,11.13
2023-03-29T14:24:40.162Z,9.70
2023-03-29T14:27:11.498Z,7.40
2023-03-29T14:29:38.978Z,6.55
2023-03-29T14:32:17.951Z,6.15
2023-03-29T14:34:49.982Z,6.30
2023-03-29T14:37:30.341Z,6.32
2023-03-29T14:39:59.240Z,7.80
2023-03-29T14:42:29.075Z,7.85
2023-03-29T14:45:04.319Z,8.15
2023-03-29T14:47:33.996Z,8.23
2023-03-29T14:50:02.716Z,8.25
2023-03-29T14:52:32.008Z,8.52
2023-03-29T14:55:02.111Z,7.80
2023-03-29T14:57:35.856Z,8.27
2023-03-29T15:00:27.030Z,7.55
2023-03-29T15:03:00.680Z,6.40
2023-03-29T15:05:39.005Z,7.10
2023-03-29T15:08:10.533Z,6.65
2023-03-29T15:10:39.070Z,9.98
2023-03-29T15:13:08.391Z,10.15
2023-03-29T15:15:38.509Z,10.77
2023-03-29T15:18:08.192Z,10.43
2023-03-29T15:20:39.251Z,11.07
2023-03-29T15:23:15.710Z,10.25
2023-03-29T15:25:56.474Z,9.55
2023-03-29T15:28:28.569Z,7.80
2023-03-29T15:31:07.820Z,7.35
2023-03-29T15:33:38.278Z,7.45
2023-03-29T15:36:08.226Z,6.47
2023-03-29T15:38:43.894Z,6.40
2023-03-29T15:41:16.228Z,6.28
2023-03-29T15:43:43.782Z,6.43
2023-03-29T15:46:14.050Z,5.45
2023-03-29T15:48:42.596Z,5.30
2023-03-29T15:51:13.466Z,5.45
2023-03-29T15:53:42.375Z,5.10
2023-03-29T15:56:15.966Z,5.63
2023-03-29T15:58:44.172Z,5.30
2023-03-29T16:01:34.792Z,5.20
2023-03-29T16:04:14.166Z,4.47
2023-03-29T16:06:43.078Z,5.05
2023-03-29T16:09:12.088Z,4.80
2023-03-29T16:11:41.732Z,5.00
2023-03-29T16:14:31.389Z,4.68
2023-03-29T16:17:01.483Z,4.10
2023-03-29T16:19:31.247Z,4.72
2023-03-29T16:22:01.839Z,4.55
2023-03-29T16:24:33.203Z,4.55
2023-03-29T16:27:01.887Z,4.93
2023-03-29T16:29:29.494Z,5.63
2023-03-29T16:31:57.404Z,5.00
2023-03-29T16:34:24.984Z,4.93
2023-03-29T16:36:53.192Z,4.53
2023-03-29T16:39:20.939Z,4.47
2023-03-29T16:41:50.313Z,4.50
2023-03-29T16:44:22.948Z,4.63
2023-03-29T16:46:54.101Z,3.50
2023-03-29T16:49:22.504Z,3.47
2023-03-29T16:51:50.420Z,3.22
2023-03-29T16:54:18.972Z,3.78
2023-03-29T16:56:47.073Z,3.50
2023-03-29T16:59:15.560Z,3.47
2023-03-29T17:01:43.225Z,3.28
2023-03-29T17:04:10.815Z,4.15
2023-03-29T17:06:38.306Z,3.95
2023-03-29T17:09:06.250Z,4.50
2023-03-29T17:11:34.223Z,5.18
2023-03-29T17:14:01.827Z,4.30
2023-03-29T17:16:29.567Z,3.60
2023-03-29T17:19:00.707Z,3.80
2023-03-29T17:21:29.404Z,3.83
2023-03-29T17:23:57.006Z,3.38
2023-03-29T17:26:24.428Z,3.50
2023-03-29T17:28:51.887Z,3.47
2023-03-29T17:31:19.688Z,3.75
2023-03-29T17:33:47.669Z,4.22
2023-03-29T17:36:15.882Z,4.07
2023-03-29T17:38:43.430Z,4.38
2023-03-29T17:41:11.243Z,4.90
2023-03-29T17:43:38.668Z,4.00
2023-03-29T17:46:06.591Z,4.38
2023-03-29T17:48:34.631Z,5.00
2023-03-29T17:51:02.360Z,6.03
2023-03-29T17:53:30.043Z,5.10
2023-03-29T17:55:57.588Z,5.00
2023-03-29T17:58:25.062Z,5.35
2023-03-29T18:00:52.565Z,4.95
2023-03-29T18:03:20.092Z,4.68
2023-03-29T18:05:48.309Z,4.65
2023-03-29T18:08:16.937Z,4.18
2023-03-29T18:10:44.448Z,4.45
2023-03-29T18:13:14.057Z,4.47
2023-03-29T18:15:42.212Z,4.35
2023-03-29T18:18:09.702Z,4.35
2023-03-29T18:20:37.449Z,4.60
2023-03-29T18:23:04.893Z,4.65
2023-03-29T18:25:32.468Z,4.63
2023-03-29T18:27:59.989Z,4.40
2023-03-29T18:30:27.415Z,4.32
2023-03-29T18:32:55.187Z,4.30
2023-03-29T18:35:22.883Z,4.30
2023-03-29T18:37:51.686Z,4.57
2023-03-29T18:40:24.705Z,4.45
2023-03-29T18:42:52.472Z,4.20
2023-03-29T18:45:21.502Z,4.25
2023-03-29T18:47:50.646Z,4.47
2023-03-29T18:50:18.304Z,4.20
2023-03-29T18:52:45.963Z,3.97
2023-03-29T18:55:13.525Z,4.50
2023-03-29T18:57:41.341Z,3.42
2023-03-29T19:00:14.840Z,4.00
2023-03-29T19:02:42.651Z,3.65
2023-03-29T19:05:10.947Z,3.85
2023-03-29T19:07:38.512Z,3.10
2023-03-29T19:10:07.428Z,3.00
2023-03-29T19:12:35.430Z,3.38
2023-03-29T19:15:03.067Z,2.95
2023-03-29T19:17:30.969Z,3.15
2023-03-29T19:19:58.512Z,3.53
2023-03-29T19:22:26.667Z,3.33
2023-03-29T19:24:54.136Z,2.92
2023-03-29T19:27:21.689Z,2.78
2023-03-29T19:29:49.769Z,2.78
2023-03-29T19:32:17.246Z,3.17
2023-03-29T19:34:44.783Z,2.83
2023-03-29T19:37:12.262Z,2.83
2023-03-29T19:39:41.201Z,2.70
2023-03-29T19:42:08.715Z,2.30
2023-03-29T19:44:38.341Z,2.50
2023-03-29T19:47:06.201Z,2.30
2023-03-29T19:49:38.362Z,2.67
2023-03-29T19:52:06.439Z,2.40
2023-03-29T19:54:33.876Z,2.13
2023-03-29T19:57:02.014Z,2.38
2023-03-29T19:59:31.210Z,2.33
2023-03-29T20:01:59.483Z,2.25
2023-03-29T20:04:28.871Z,2.22
2023-03-29T20:06:57.787Z,2.50
2023-03-29T20:09:25.257Z,2.35
2023-03-29T20:11:52.766Z,2.35
2023-03-29T20:14:20.482Z,2.13
2023-03-29T20:16:49.928Z,2.17
2023-03-29T20:19:18.030Z,2.20
2023-03-29T20:21:45.596Z,2.80
2023-03-29T20:24:13.135Z,3.28
2023-03-29T20:26:40.909Z,3.88
2023-03-29T20:29:08.922Z,3.40
2023-03-29T20:31:36.436Z,3.80
2023-03-29T20:34:03.955Z,3.67
2023-03-29T20:36:31.815Z,2.83
2023-03-29T20:39:00.404Z,2.65
2023-03-29T20:41:27.945Z,2.38
2023-03-29T20:44:00.169Z,1.85
2023-03-29T20:46:35.366Z,2.35
2023-03-29T20:49:04.886Z,2.25
2023-03-29T20:51:32.407Z,2.50
2023-03-29T20:54:04.942Z,2.25
2023-03-29T20:56:34.908Z,2.05
2023-03-29T20:59:04.199Z,2.25
2023-03-29T21:01:32.705Z,2.38
2023-03-29T21:04:00.784Z,2.20
2023-03-29T21:06:28.354Z,2.40
2023-03-29T21:08:55.873Z,2.72
2023-03-29T21:11:23.611Z,3.08
2023-03-29T21:13:52.885Z,4.00
2023-03-29T21:16:20.942Z,3.42
2023-03-29T21:18:48.479Z,4.45
2023-03-29T21:21:15.933Z,4.90
2023-03-29T21:23:43.390Z,4.45
2023-03-29T21:26:10.900Z,4.68
2023-03-29T21:28:38.375Z,5.00
2023-03-29T21:31:06.952Z,4.63
2023-03-29T21:33:36.313Z,5.15
2023-03-29T21:36:04.056Z,4.75
2023-03-29T21:38:31.842Z,5.22
2023-03-29T21:41:00.682Z,5.03
2023-03-29T21:43:28.882Z,4.40
2023-03-29T21:45:57.803Z,4.93
2023-03-29T21:48:25.393Z,5.00
2023-03-29T21:50:52.864Z,4.75
2023-03-29T21:53:20.626Z,4.85
2023-03-29T21:55:49.621Z,4.82
2023-03-29T21:58:17.877Z,5.00
2023-03-29T22:00:47.262Z,4.43
2023-03-29T22:03:15.985Z,4.90
2023-03-29T22:05:44.585Z,4.85
2023-03-29T22:08:12.008Z,4.50
2023-03-29T22:10:41.527Z,4.30
2023-03-29T22:13:09.529Z,4.43
2023-03-29T22:15:36.982Z,4.75
2023-03-29T22:18:05.354Z,4.47
2023-03-29T22:20:34.301Z,4.60
2023-03-29T22:23:01.801Z,4.53
2023-03-29T22:25:29.280Z,3.80
2023-03-29T22:27:56.760Z,4.60
2023-03-29T22:30:24.279Z,5.25
2023-03-29T22:32:51.976Z,5.15
2023-03-29T22:35:19.528Z,5.13
2023-03-29T22:37:47.037Z,4.75
2023-03-29T22:40:14.728Z,5.22
2023-03-29T22:42:42.273Z,4.90
2023-03-29T22:45:10.463Z,5.00
2023-03-29T22:47:38.076Z,5.40
2023-03-29T22:50:07.289Z,5.20
2023-03-29T22:52:34.934Z,4.60
2023-03-29T22:55:02.372Z,5.43
2023-03-29T22:57:29.880Z,5.85
2023-03-29T22:59:57.433Z,5.80
2023-03-29T23:02:25.074Z,4.97
2023-03-29T23:04:52.710Z,5.38
2023-03-29T23:07:20.162Z,5.30
2023-03-29T23:13:35.438Z,5.35
2023-03-29T23:16:03.987Z,44.75
2023-03-29T23:18:34.900Z,24.40
2023-03-29T23:21:06.080Z,13.48
2023-03-29T23:23:34.145Z,8.40
2023-03-29T23:26:02.574Z,6.55
2023-03-29T23:28:34.818Z,6.15
2023-03-29T23:31:05.854Z,6.55
2023-03-29T23:33:35.750Z,5.80
2023-03-29T23:36:05.771Z,5.13
2023-03-29T23:38:35.532Z,5.30
2023-03-29T23:41:05.794Z,12.32
2023-03-29T23:43:35.658Z,4.47
2023-03-29T23:46:09.803Z,4.80
2023-03-29T23:48:38.437Z,4.63
2023-03-29T23:51:08.106Z,4.20
2023-03-29T23:53:35.766Z,4.55
2023-03-29T23:56:05.634Z,4.63
2023-03-29T23:58:35.610Z,4.18
